sensor_id;sensor_type;location;lat;lon;timestamp;temperature;humidity
55436;DHT22;41307;53.142;6.430;2023-08-06T00:00:27;13.90;99.90
55436;DHT22;41307;53.142;6.430;2023-08-06T00:02:52;13.90;99.90
55436;DHT22;41307;53.142;6.430;2023-08-06T00:05:18;13.90;99.90
55436;DHT22;41307;53.142;6.430;2023-08-06T00:07:49;13.80;99.90
55436;DHT22;41307;53.142;6.430;2023-08-06T00:10:16;13.90;99.90
55436;DHT22;41307;53.142;6.430;2023-08-06T00:12:43;13.80;99.90
55436;DHT22;41307;53.142;6.430;2023-08-06T00:15:09;13.80;99.90
55436;DHT22;41307;53.142;6.430;2023-08-06T00:17:35;13.80;99.90
55436;DHT22;41307;53.142;6.430;2023-08-06T00:20:04;13.80;99.90
55436;DHT22;41307;53.142;6.430;2023-08-06T00:22:35;13.90;99.90
55436;DHT22;41307;53.142;6.430;2023-08-06T00:25:02;13.90;99.90
55436;DHT22;41307;53.142;6.430;2023-08-06T00:27:28;13.80;99.90
55436;DHT22;41307;53.142;6.430;2023-08-06T00:29:54;13.90;99.90
55436;DHT22;41307;53.142;6.430;2023-08-06T00:32:20;13.80;99.90
55436;DHT22;41307;53.142;6.430;2023-08-06T00:34:46;13.90;99.90
55436;DHT22;41307;53.142;6.430;2023-08-06T00:37:12;13.90;99.90
55436;DHT22;41307;53.142;6.430;2023-08-06T00:39:38;13.90;99.90
55436;DHT22;41307;53.142;6.430;2023-08-06T00:42:03;13.90;99.90
55436;DHT22;41307;53.142;6.430;2023-08-06T00:44:29;13.90;99.90
55436;DHT22;41307;53.142;6.430;2023-08-06T00:46:55;13.80;99.90
55436;DHT22;41307;53.142;6.430;2023-08-06T00:49:21;13.80;99.90
55436;DHT22;41307;53.142;6.430;2023-08-06T00:51:47;13.90;99.90
55436;DHT22;41307;53.142;6.430;2023-08-06T00:54:13;13.90;99.90
55436;DHT22;41307;53.142;6.430;2023-08-06T00:56:39;13.90;99.90
55436;DHT22;41307;53.142;6.430;2023-08-06T00:59:07;13.90;99.90
55436;DHT22;41307;53.142;6.430;2023-08-06T01:01:33;13.90;99.90
55436;DHT22;41307;53.142;6.430;2023-08-06T01:03:59;13.90;99.90
55436;DHT22;41307;53.142;6.430;2023-08-06T01:12:04;13.80;99.90
55436;DHT22;41307;53.142;6.430;2023-08-06T01:14:55;13.90;99.90
55436;DHT22;41307;53.142;6.430;2023-08-06T01:17:23;13.90;99.90
55436;DHT22;41307;53.142;6.430;2023-08-06T01:19:49;13.80;99.90
55436;DHT22;41307;53.142;6.430;2023-08-06T01:22:15;13.90;99.90
55436;DHT22;41307;53.142;6.430;2023-08-06T01:24:42;13.80;99.90
55436;DHT22;41307;53.142;6.430;2023-08-06T01:27:19;13.80;99.90
55436;DHT22;41307;53.142;6.430;2023-08-06T01:29:51;13.90;99.90
55436;DHT22;41307;53.142;6.430;2023-08-06T01:32:20;13.90;99.90
55436;DHT22;41307;53.142;6.430;2023-08-06T01:34:47;13.90;99.90
55436;DHT22;41307;53.142;6.430;2023-08-06T01:37:13;13.90;99.90
55436;DHT22;41307;53.142;6.430;2023-08-06T01:39:42;13.80;99.90
55436;DHT22;41307;53.142;6.430;2023-08-06T01:42:08;13.90;99.90
55436;DHT22;41307;53.142;6.430;2023-08-06T01:44:34;13.90;99.90
55436;DHT22;41307;53.142;6.430;2023-08-06T01:46:59;13.80;99.90
55436;DHT22;41307;53.142;6.430;2023-08-06T01:49:25;13.80;99.90
55436;DHT22;41307;53.142;6.430;2023-08-06T01:51:51;13.80;99.90
55436;DHT22;41307;53.142;6.430;2023-08-06T01:54:17;13.90;99.90
55436;DHT22;41307;53.142;6.430;2023-08-06T01:56:42;13.80;99.90
55436;DHT22;41307;53.142;6.430;2023-08-06T01:59:08;13.80;99.90
55436;DHT22;41307;53.142;6.430;2023-08-06T02:01:33;13.80;99.90
55436;DHT22;41307;53.142;6.430;2023-08-06T02:03:59;13.80;99.90
55436;DHT22;41307;53.142;6.430;2023-08-06T02:06:25;13.80;99.90
55436;DHT22;41307;53.142;6.430;2023-08-06T02:08:50;13.70;99.90
55436;DHT22;41307;53.142;6.430;2023-08-06T02:11:16;13.80;99.90
55436;DHT22;41307;53.142;6.430;2023-08-06T02:13:42;13.80;99.90
55436;DHT22;41307;53.142;6.430;2023-08-06T02:16:07;13.80;99.90
55436;DHT22;41307;53.142;6.430;2023-08-06T02:18:36;13.90;99.90
55436;DHT22;41307;53.142;6.430;2023-08-06T02:21:01;13.80;99.90
55436;DHT22;41307;53.142;6.430;2023-08-06T02:23:27;13.80;99.90
55436;DHT22;41307;53.142;6.430;2023-08-06T02:26:01;13.90;99.90
55436;DHT22;41307;53.142;6.430;2023-08-06T02:28:28;13.70;99.90
55436;DHT22;41307;53.142;6.430;2023-08-06T02:30:54;13.90;99.90
55436;DHT22;41307;53.142;6.430;2023-08-06T02:33:19;13.80;99.90
55436;DHT22;41307;53.142;6.430;2023-08-06T02:35:45;13.80;99.90
55436;DHT22;41307;53.142;6.430;2023-08-06T02:38:11;13.80;99.90
55436;DHT22;41307;53.142;6.430;2023-08-06T02:40:42;13.80;99.90
55436;DHT22;41307;53.142;6.430;2023-08-06T02:43:07;13.90;99.90
55436;DHT22;41307;53.142;6.430;2023-08-06T02:45:33;13.90;99.90
55436;DHT22;41307;53.142;6.430;2023-08-06T02:47:59;13.80;99.90
55436;DHT22;41307;53.142;6.430;2023-08-06T02:50:24;13.80;99.90
55436;DHT22;41307;53.142;6.430;2023-08-06T02:52:50;13.80;99.90
55436;DHT22;41307;53.142;6.430;2023-08-06T02:55:16;13.80;99.90
55436;DHT22;41307;53.142;6.430;2023-08-06T02:57:41;13.80;99.90
55436;DHT22;41307;53.142;6.430;2023-08-06T03:00:07;13.80;99.90
55436;DHT22;41307;53.142;6.430;2023-08-06T03:02:33;13.80;99.90
55436;DHT22;41307;53.142;6.430;2023-08-06T03:04:59;13.80;99.90
55436;DHT22;41307;53.142;6.430;2023-08-06T03:07:24;13.90;99.90
55436;DHT22;41307;53.142;6.430;2023-08-06T03:09:50;13.80;99.90
55436;DHT22;41307;53.142;6.430;2023-08-06T03:12:16;13.80;99.90
55436;DHT22;41307;53.142;6.430;2023-08-06T03:14:41;13.80;99.90
55436;DHT22;41307;53.142;6.430;2023-08-06T03:17:07;13.80;99.90
55436;DHT22;41307;53.142;6.430;2023-08-06T03:19:33;13.90;99.90
55436;DHT22;41307;53.142;6.430;2023-08-06T03:21:59;13.80;99.90
55436;DHT22;41307;53.142;6.430;2023-08-06T03:24:24;13.80;99.90
55436;DHT22;41307;53.142;6.430;2023-08-06T03:26:50;13.90;99.90
55436;DHT22;41307;53.142;6.430;2023-08-06T03:29:16;13.90;99.90
55436;DHT22;41307;53.142;6.430;2023-08-06T03:31:41;13.90;99.90
55436;DHT22;41307;53.142;6.430;2023-08-06T03:34:07;13.90;99.90
55436;DHT22;41307;53.142;6.430;2023-08-06T03:36:33;13.90;99.90
55436;DHT22;41307;53.142;6.430;2023-08-06T03:38:58;13.90;99.90
55436;DHT22;41307;53.142;6.430;2023-08-06T03:41:24;13.90;99.90
55436;DHT22;41307;53.142;6.430;2023-08-06T03:43:50;13.90;99.90
55436;DHT22;41307;53.142;6.430;2023-08-06T03:46:15;13.90;99.90
55436;DHT22;41307;53.142;6.430;2023-08-06T03:48:41;13.80;99.90
55436;DHT22;41307;53.142;6.430;2023-08-06T03:51:06;13.90;99.90
55436;DHT22;41307;53.142;6.430;2023-08-06T03:53:32;13.90;99.90
55436;DHT22;41307;53.142;6.430;2023-08-06T03:55:58;13.90;99.90
55436;DHT22;41307;53.142;6.430;2023-08-06T03:58:26;13.90;99.90
55436;DHT22;41307;53.142;6.430;2023-08-06T04:01:02;13.90;99.90
55436;DHT22;41307;53.142;6.430;2023-08-06T04:03:28;13.90;99.90
55436;DHT22;41307;53.142;6.430;2023-08-06T04:05:54;13.80;99.90
55436;DHT22;41307;53.142;6.430;2023-08-06T04:08:20;13.90;99.90
55436;DHT22;41307;53.142;6.430;2023-08-06T04:10:49;13.90;99.90
55436;DHT22;41307;53.142;6.430;2023-08-06T04:13:15;13.90;99.90
55436;DHT22;41307;53.142;6.430;2023-08-06T04:15:41;13.90;99.90
55436;DHT22;41307;53.142;6.430;2023-08-06T04:18:06;13.90;99.90
55436;DHT22;41307;53.142;6.430;2023-08-06T04:20:32;14.00;99.90
55436;DHT22;41307;53.142;6.430;2023-08-06T04:22:58;14.00;99.90
55436;DHT22;41307;53.142;6.430;2023-08-06T04:25:23;14.00;99.90
55436;DHT22;41307;53.142;6.430;2023-08-06T04:27:49;14.00;99.90
55436;DHT22;41307;53.142;6.430;2023-08-06T04:30:15;14.00;99.90
55436;DHT22;41307;53.142;6.430;2023-08-06T04:32:41;14.00;99.90
55436;DHT22;41307;53.142;6.430;2023-08-06T04:35:07;14.00;99.90
55436;DHT22;41307;53.142;6.430;2023-08-06T04:37:32;14.00;99.90
55436;DHT22;41307;53.142;6.430;2023-08-06T04:39:58;14.10;99.90
55436;DHT22;41307;53.142;6.430;2023-08-06T04:42:24;14.00;99.90
55436;DHT22;41307;53.142;6.430;2023-08-06T04:44:50;14.20;99.90
55436;DHT22;41307;53.142;6.430;2023-08-06T04:47:16;14.20;99.90
55436;DHT22;41307;53.142;6.430;2023-08-06T04:49:41;14.20;99.90
55436;DHT22;41307;53.142;6.430;2023-08-06T04:52:07;14.40;99.90
55436;DHT22;41307;53.142;6.430;2023-08-06T04:54:33;14.40;99.90
55436;DHT22;41307;53.142;6.430;2023-08-06T04:56:59;14.60;99.90
55436;DHT22;41307;53.142;6.430;2023-08-06T04:59:25;14.60;99.90
55436;DHT22;41307;53.142;6.430;2023-08-06T05:01:50;14.60;99.90
55436;DHT22;41307;53.142;6.430;2023-08-06T05:04:16;14.70;99.90
55436;DHT22;41307;53.142;6.430;2023-08-06T05:06:42;14.80;99.90
55436;DHT22;41307;53.142;6.430;2023-08-06T05:09:07;14.90;99.90
55436;DHT22;41307;53.142;6.430;2023-08-06T05:11:33;15.00;99.90
55436;DHT22;41307;53.142;6.430;2023-08-06T05:13:59;15.00;99.90
55436;DHT22;41307;53.142;6.430;2023-08-06T05:16:24;15.00;99.90
55436;DHT22;41307;53.142;6.430;2023-08-06T05:18:50;15.00;99.90
55436;DHT22;41307;53.142;6.430;2023-08-06T05:21:16;15.00;99.90
55436;DHT22;41307;53.142;6.430;2023-08-06T05:23:42;15.00;99.90
55436;DHT22;41307;53.142;6.430;2023-08-06T05:26:08;15.00;99.90
55436;DHT22;41307;53.142;6.430;2023-08-06T05:28:34;15.00;99.90
55436;DHT22;41307;53.142;6.430;2023-08-06T05:31:04;15.10;99.90
55436;DHT22;41307;53.142;6.430;2023-08-06T05:33:30;15.10;99.90
55436;DHT22;41307;53.142;6.430;2023-08-06T05:35:55;15.20;99.90
55436;DHT22;41307;53.142;6.430;2023-08-06T05:38:21;15.90;99.90
55436;DHT22;41307;53.142;6.430;2023-08-06T05:40:47;16.60;99.90
55436;DHT22;41307;53.142;6.430;2023-08-06T05:43:13;16.80;99.90
55436;DHT22;41307;53.142;6.430;2023-08-06T05:45:39;16.60;99.90
55436;DHT22;41307;53.142;6.430;2023-08-06T05:48:04;16.40;99.90
55436;DHT22;41307;53.142;6.430;2023-08-06T05:50:30;16.50;99.90
55436;DHT22;41307;53.142;6.430;2023-08-06T05:52:55;16.60;99.90
55436;DHT22;41307;53.142;6.430;2023-08-06T05:55:22;16.60;99.90
55436;DHT22;41307;53.142;6.430;2023-08-06T05:57:47;16.50;99.90
55436;DHT22;41307;53.142;6.430;2023-08-06T06:00:13;16.40;99.90
55436;DHT22;41307;53.142;6.430;2023-08-06T06:02:39;16.30;99.90
55436;DHT22;41307;53.142;6.430;2023-08-06T06:05:04;16.20;99.90
55436;DHT22;41307;53.142;6.430;2023-08-06T06:07:30;16.20;99.90
55436;DHT22;41307;53.142;6.430;2023-08-06T06:09:56;16.10;99.90
55436;DHT22;41307;53.142;6.430;2023-08-06T06:12:21;16.00;99.90
55436;DHT22;41307;53.142;6.430;2023-08-06T06:14:48;16.00;99.90
55436;DHT22;41307;53.142;6.430;2023-08-06T06:17:13;15.90;99.90
55436;DHT22;41307;53.142;6.430;2023-08-06T06:19:39;15.80;99.90
55436;DHT22;41307;53.142;6.430;2023-08-06T06:22:05;15.70;99.90
55436;DHT22;41307;53.142;6.430;2023-08-06T06:24:30;15.70;99.90
55436;DHT22;41307;53.142;6.430;2023-08-06T06:26:56;15.70;99.90
55436;DHT22;41307;53.142;6.430;2023-08-06T06:29:21;15.80;99.90
55436;DHT22;41307;53.142;6.430;2023-08-06T06:31:47;15.90;99.90
55436;DHT22;41307;53.142;6.430;2023-08-06T06:34:13;15.90;99.90
55436;DHT22;41307;53.142;6.430;2023-08-06T06:36:39;16.00;99.90
55436;DHT22;41307;53.142;6.430;2023-08-06T06:39:04;16.10;99.90
55436;DHT22;41307;53.142;6.430;2023-08-06T06:41:30;16.20;99.90
55436;DHT22;41307;53.142;6.430;2023-08-06T06:43:58;16.20;99.90
55436;DHT22;41307;53.142;6.430;2023-08-06T06:46:24;16.30;99.90
55436;DHT22;41307;53.142;6.430;2023-08-06T06:48:50;16.30;99.90
55436;DHT22;41307;53.142;6.430;2023-08-06T06:51:15;16.40;99.90
55436;DHT22;41307;53.142;6.430;2023-08-06T06:53:41;16.30;99.90
55436;DHT22;41307;53.142;6.430;2023-08-06T06:56:07;16.30;99.90
55436;DHT22;41307;53.142;6.430;2023-08-06T06:58:33;16.40;99.90
55436;DHT22;41307;53.142;6.430;2023-08-06T07:00:58;16.40;99.90
55436;DHT22;41307;53.142;6.430;2023-08-06T07:03:24;16.60;99.90
55436;DHT22;41307;53.142;6.430;2023-08-06T07:05:50;16.60;99.90
55436;DHT22;41307;53.142;6.430;2023-08-06T07:08:16;16.70;99.90
55436;DHT22;41307;53.142;6.430;2023-08-06T07:10:43;16.80;99.90
55436;DHT22;41307;53.142;6.430;2023-08-06T07:13:09;16.90;99.90
55436;DHT22;41307;53.142;6.430;2023-08-06T07:15:35;17.00;99.90
55436;DHT22;41307;53.142;6.430;2023-08-06T07:18:01;17.10;99.90
55436;DHT22;41307;53.142;6.430;2023-08-06T07:20:26;17.10;99.90
55436;DHT22;41307;53.142;6.430;2023-08-06T07:22:58;17.10;99.90
55436;DHT22;41307;53.142;6.430;2023-08-06T07:25:24;17.30;99.90
55436;DHT22;41307;53.142;6.430;2023-08-06T07:27:49;17.60;99.90
55436;DHT22;41307;53.142;6.430;2023-08-06T07:30:15;18.10;99.90
55436;DHT22;41307;53.142;6.430;2023-08-06T07:32:41;18.50;99.90
55436;DHT22;41307;53.142;6.430;2023-08-06T07:35:07;18.70;99.90
55436;DHT22;41307;53.142;6.430;2023-08-06T07:37:35;18.90;99.90
55436;DHT22;41307;53.142;6.430;2023-08-06T07:40:00;19.00;99.90
55436;DHT22;41307;53.142;6.430;2023-08-06T07:42:26;19.20;99.90
55436;DHT22;41307;53.142;6.430;2023-08-06T07:44:56;19.70;99.90
55436;DHT22;41307;53.142;6.430;2023-08-06T07:47:22;20.10;99.90
55436;DHT22;41307;53.142;6.430;2023-08-06T07:49:48;20.30;99.90
55436;DHT22;41307;53.142;6.430;2023-08-06T07:52:14;20.30;99.90
55436;DHT22;41307;53.142;6.430;2023-08-06T07:54:39;20.30;99.90
55436;DHT22;41307;53.142;6.430;2023-08-06T07:57:05;20.50;99.90
55436;DHT22;41307;53.142;6.430;2023-08-06T07:59:31;20.90;99.90
55436;DHT22;41307;53.142;6.430;2023-08-06T08:01:57;21.30;99.90
55436;DHT22;41307;53.142;6.430;2023-08-06T08:04:23;21.70;99.90
55436;DHT22;41307;53.142;6.430;2023-08-06T08:06:49;21.70;99.90
55436;DHT22;41307;53.142;6.430;2023-08-06T08:09:15;21.60;99.90
55436;DHT22;41307;53.142;6.430;2023-08-06T08:11:41;21.60;99.90
55436;DHT22;41307;53.142;6.430;2023-08-06T08:14:07;21.80;99.90
55436;DHT22;41307;53.142;6.430;2023-08-06T08:16:33;21.70;99.90
55436;DHT22;41307;53.142;6.430;2023-08-06T08:18:59;21.60;99.90
55436;DHT22;41307;53.142;6.430;2023-08-06T08:21:24;21.50;99.90
55436;DHT22;41307;53.142;6.430;2023-08-06T08:23:51;21.70;99.90
55436;DHT22;41307;53.142;6.430;2023-08-06T08:26:16;22.60;99.90
55436;DHT22;41307;53.142;6.430;2023-08-06T08:28:42;22.80;99.90
55436;DHT22;41307;53.142;6.430;2023-08-06T08:31:09;22.80;99.90
55436;DHT22;41307;53.142;6.430;2023-08-06T08:33:35;22.90;99.90
55436;DHT22;41307;53.142;6.430;2023-08-06T08:36:01;22.80;99.90
55436;DHT22;41307;53.142;6.430;2023-08-06T08:38:26;23.00;99.90
55436;DHT22;41307;53.142;6.430;2023-08-06T08:40:53;23.30;99.90
55436;DHT22;41307;53.142;6.430;2023-08-06T08:43:23;23.70;99.90
55436;DHT22;41307;53.142;6.430;2023-08-06T08:45:53;24.40;99.90
55436;DHT22;41307;53.142;6.430;2023-08-06T08:48:26;25.10;99.90
55436;DHT22;41307;53.142;6.430;2023-08-06T08:50:53;25.50;99.90
55436;DHT22;41307;53.142;6.430;2023-08-06T08:53:19;25.70;99.90
55436;DHT22;41307;53.142;6.430;2023-08-06T08:55:48;25.80;99.90
55436;DHT22;41307;53.142;6.430;2023-08-06T08:58:14;25.60;99.90
55436;DHT22;41307;53.142;6.430;2023-08-06T09:00:42;25.40;99.90
55436;DHT22;41307;53.142;6.430;2023-08-06T09:03:08;25.20;99.90
55436;DHT22;41307;53.142;6.430;2023-08-06T09:05:34;25.10;99.90
55436;DHT22;41307;53.142;6.430;2023-08-06T09:08:04;24.90;99.90
55436;DHT22;41307;53.142;6.430;2023-08-06T09:10:30;24.80;99.90
55436;DHT22;41307;53.142;6.430;2023-08-06T09:12:56;24.40;99.90
55436;DHT22;41307;53.142;6.430;2023-08-06T09:15:27;24.20;99.90
55436;DHT22;41307;53.142;6.430;2023-08-06T09:17:53;24.20;99.90
55436;DHT22;41307;53.142;6.430;2023-08-06T09:20:19;24.30;99.90
55436;DHT22;41307;53.142;6.430;2023-08-06T09:22:45;24.30;99.90
55436;DHT22;41307;53.142;6.430;2023-08-06T09:25:24;24.20;99.90
55436;DHT22;41307;53.142;6.430;2023-08-06T09:27:51;24.00;99.90
55436;DHT22;41307;53.142;6.430;2023-08-06T09:30:31;23.90;99.90
55436;DHT22;41307;53.142;6.430;2023-08-06T09:32:57;23.90;99.90
55436;DHT22;41307;53.142;6.430;2023-08-06T09:35:23;23.80;99.90
55436;DHT22;41307;53.142;6.430;2023-08-06T09:37:49;23.50;99.90
55436;DHT22;41307;53.142;6.430;2023-08-06T09:40:25;23.60;99.90
55436;DHT22;41307;53.142;6.430;2023-08-06T09:42:55;23.50;99.90
55436;DHT22;41307;53.142;6.430;2023-08-06T09:45:21;23.60;99.90
55436;DHT22;41307;53.142;6.430;2023-08-06T09:47:55;23.70;99.90
55436;DHT22;41307;53.142;6.430;2023-08-06T09:50:21;23.80;99.90
55436;DHT22;41307;53.142;6.430;2023-08-06T09:52:47;23.70;99.90
55436;DHT22;41307;53.142;6.430;2023-08-06T09:55:14;23.80;99.90
55436;DHT22;41307;53.142;6.430;2023-08-06T09:57:41;24.00;99.90
55436;DHT22;41307;53.142;6.430;2023-08-06T10:00:08;24.10;99.90
55436;DHT22;41307;53.142;6.430;2023-08-06T10:02:39;24.20;99.90
55436;DHT22;41307;53.142;6.430;2023-08-06T10:05:06;24.20;99.90
55436;DHT22;41307;53.142;6.430;2023-08-06T10:07:32;24.20;99.90
55436;DHT22;41307;53.142;6.430;2023-08-06T10:09:58;24.20;99.90
55436;DHT22;41307;53.142;6.430;2023-08-06T10:12:26;24.20;99.90
55436;DHT22;41307;53.142;6.430;2023-08-06T10:14:56;24.50;99.90
55436;DHT22;41307;53.142;6.430;2023-08-06T10:17:26;24.70;99.90
55436;DHT22;41307;53.142;6.430;2023-08-06T10:19:52;24.70;99.90
55436;DHT22;41307;53.142;6.430;2023-08-06T10:22:20;24.60;99.90
55436;DHT22;41307;53.142;6.430;2023-08-06T10:24:50;24.60;99.90
55436;DHT22;41307;53.142;6.430;2023-08-06T10:29:46;24.60;99.90
55436;DHT22;41307;53.142;6.430;2023-08-06T10:32:12;24.50;99.90
55436;DHT22;41307;53.142;6.430;2023-08-06T10:34:59;24.40;99.90
55436;DHT22;41307;53.142;6.430;2023-08-06T10:37:36;24.30;99.90
55436;DHT22;41307;53.142;6.430;2023-08-06T10:40:03;24.30;99.90
55436;DHT22;41307;53.142;6.430;2023-08-06T10:42:29;24.30;99.90
55436;DHT22;41307;53.142;6.430;2023-08-06T10:45:17;24.30;99.90
55436;DHT22;41307;53.142;6.430;2023-08-06T10:47:44;24.40;99.90
55436;DHT22;41307;53.142;6.430;2023-08-06T10:50:17;24.70;99.90
55436;DHT22;41307;53.142;6.430;2023-08-06T10:52:47;24.90;99.90
55436;DHT22;41307;53.142;6.430;2023-08-06T10:55:14;25.20;99.90
55436;DHT22;41307;53.142;6.430;2023-08-06T10:57:40;25.30;99.90
55436;DHT22;41307;53.142;6.430;2023-08-06T11:00:07;25.10;99.90
55436;DHT22;41307;53.142;6.430;2023-08-06T11:02:36;25.00;99.90
55436;DHT22;41307;53.142;6.430;2023-08-06T11:05:09;24.70;99.90
55436;DHT22;41307;53.142;6.430;2023-08-06T11:07:36;24.50;99.90
55436;DHT22;41307;53.142;6.430;2023-08-06T11:10:06;24.40;99.90
55436;DHT22;41307;53.142;6.430;2023-08-06T11:12:33;24.20;99.90
55436;DHT22;41307;53.142;6.430;2023-08-06T11:14:59;24.10;99.90
55436;DHT22;41307;53.142;6.430;2023-08-06T11:17:27;24.10;99.90
55436;DHT22;41307;53.142;6.430;2023-08-06T11:19:53;23.90;99.90
55436;DHT22;41307;53.142;6.430;2023-08-06T11:22:21;23.90;99.90
55436;DHT22;41307;53.142;6.430;2023-08-06T11:24:50;24.00;99.90
55436;DHT22;41307;53.142;6.430;2023-08-06T11:27:17;24.30;99.90
55436;DHT22;41307;53.142;6.430;2023-08-06T11:29:43;24.20;99.90
55436;DHT22;41307;53.142;6.430;2023-08-06T11:32:10;24.10;99.90
55436;DHT22;41307;53.142;6.430;2023-08-06T11:34:37;24.20;99.90
55436;DHT22;41307;53.142;6.430;2023-08-06T11:37:06;24.30;99.90
55436;DHT22;41307;53.142;6.430;2023-08-06T11:39:36;24.30;99.90
55436;DHT22;41307;53.142;6.430;2023-08-06T11:42:08;24.60;99.90
55436;DHT22;41307;53.142;6.430;2023-08-06T11:44:35;24.70;99.90
55436;DHT22;41307;53.142;6.430;2023-08-06T11:47:05;24.60;99.90
55436;DHT22;41307;53.142;6.430;2023-08-06T11:52:23;24.30;99.90
55436;DHT22;41307;53.142;6.430;2023-08-06T11:57:32;23.90;99.90
55436;DHT22;41307;53.142;6.430;2023-08-06T12:00:04;24.00;99.90
55436;DHT22;41307;53.142;6.430;2023-08-06T12:02:34;24.10;99.90
55436;DHT22;41307;53.142;6.430;2023-08-06T12:05:09;24.20;99.90
55436;DHT22;41307;53.142;6.430;2023-08-06T12:07:41;24.40;99.90
55436;DHT22;41307;53.142;6.430;2023-08-06T12:10:07;24.50;99.90
55436;DHT22;41307;53.142;6.430;2023-08-06T12:12:34;24.30;99.90
55436;DHT22;41307;53.142;6.430;2023-08-06T12:15:00;24.40;99.90
55436;DHT22;41307;53.142;6.430;2023-08-06T12:17:26;24.30;99.90
55436;DHT22;41307;53.142;6.430;2023-08-06T12:19:52;24.20;99.90
55436;DHT22;41307;53.142;6.430;2023-08-06T12:22:18;24.20;99.90
55436;DHT22;41307;53.142;6.430;2023-08-06T12:24:45;24.20;99.90
55436;DHT22;41307;53.142;6.430;2023-08-06T12:27:12;24.30;99.90
55436;DHT22;41307;53.142;6.430;2023-08-06T12:29:41;24.30;99.90
55436;DHT22;41307;53.142;6.430;2023-08-06T12:32:08;24.50;99.90
55436;DHT22;41307;53.142;6.430;2023-08-06T12:34:34;24.40;99.90
55436;DHT22;41307;53.142;6.430;2023-08-06T12:37:00;24.60;99.90
55436;DHT22;41307;53.142;6.430;2023-08-06T12:39:25;24.50;99.90
55436;DHT22;41307;53.142;6.430;2023-08-06T12:41:54;24.40;99.90
55436;DHT22;41307;53.142;6.430;2023-08-06T12:44:21;24.20;99.90
55436;DHT22;41307;53.142;6.430;2023-08-06T12:46:46;24.20;99.90
55436;DHT22;41307;53.142;6.430;2023-08-06T12:49:12;24.00;99.90
55436;DHT22;41307;53.142;6.430;2023-08-06T12:51:38;23.80;99.90
55436;DHT22;41307;53.142;6.430;2023-08-06T12:54:04;23.60;99.90
55436;DHT22;41307;53.142;6.430;2023-08-06T12:56:29;23.60;99.90
55436;DHT22;41307;53.142;6.430;2023-08-06T12:58:55;23.80;99.90
55436;DHT22;41307;53.142;6.430;2023-08-06T13:01:21;23.60;99.90
55436;DHT22;41307;53.142;6.430;2023-08-06T13:03:46;23.50;99.90
55436;DHT22;41307;53.142;6.430;2023-08-06T13:06:12;23.50;99.90
55436;DHT22;41307;53.142;6.430;2023-08-06T13:08:38;23.40;99.90
55436;DHT22;41307;53.142;6.430;2023-08-06T13:11:04;23.20;99.90
55436;DHT22;41307;53.142;6.430;2023-08-06T13:13:30;23.10;99.90
55436;DHT22;41307;53.142;6.430;2023-08-06T13:15:56;23.10;99.90
55436;DHT22;41307;53.142;6.430;2023-08-06T13:18:21;23.20;99.90
55436;DHT22;41307;53.142;6.430;2023-08-06T13:20:47;23.20;99.90
55436;DHT22;41307;53.142;6.430;2023-08-06T13:23:15;23.30;99.90
55436;DHT22;41307;53.142;6.430;2023-08-06T13:25:42;23.20;99.90
55436;DHT22;41307;53.142;6.430;2023-08-06T13:28:08;23.20;99.90
55436;DHT22;41307;53.142;6.430;2023-08-06T13:30:33;23.10;99.90
55436;DHT22;41307;53.142;6.430;2023-08-06T13:33:01;23.20;99.90
55436;DHT22;41307;53.142;6.430;2023-08-06T13:35:27;23.20;99.90
55436;DHT22;41307;53.142;6.430;2023-08-06T13:37:52;23.20;99.90
55436;DHT22;41307;53.142;6.430;2023-08-06T13:40:20;23.20;99.90
55436;DHT22;41307;53.142;6.430;2023-08-06T13:42:45;23.20;99.90
55436;DHT22;41307;53.142;6.430;2023-08-06T13:45:11;23.20;99.90
55436;DHT22;41307;53.142;6.430;2023-08-06T13:47:37;23.20;99.90
55436;DHT22;41307;53.142;6.430;2023-08-06T13:50:02;23.10;99.90
55436;DHT22;41307;53.142;6.430;2023-08-06T13:52:29;23.10;99.90
55436;DHT22;41307;53.142;6.430;2023-08-06T13:54:55;23.00;99.90
55436;DHT22;41307;53.142;6.430;2023-08-06T13:57:21;23.00;99.90
55436;DHT22;41307;53.142;6.430;2023-08-06T13:59:46;23.00;99.90
55436;DHT22;41307;53.142;6.430;2023-08-06T14:02:12;22.90;99.90
55436;DHT22;41307;53.142;6.430;2023-08-06T14:04:38;22.70;99.90
55436;DHT22;41307;53.142;6.430;2023-08-06T14:07:05;22.50;99.90
55436;DHT22;41307;53.142;6.430;2023-08-06T14:09:31;22.50;99.90
55436;DHT22;41307;53.142;6.430;2023-08-06T14:11:56;22.50;99.90
55436;DHT22;41307;53.142;6.430;2023-08-06T14:14:22;22.60;99.90
55436;DHT22;41307;53.142;6.430;2023-08-06T14:16:52;22.80;99.90
55436;DHT22;41307;53.142;6.430;2023-08-06T14:19:18;22.90;99.90
55436;DHT22;41307;53.142;6.430;2023-08-06T14:21:43;23.00;99.90
55436;DHT22;41307;53.142;6.430;2023-08-06T14:24:09;23.10;99.90
55436;DHT22;41307;53.142;6.430;2023-08-06T14:26:35;23.00;99.90
55436;DHT22;41307;53.142;6.430;2023-08-06T14:29:01;22.90;99.90
55436;DHT22;41307;53.142;6.430;2023-08-06T14:31:27;22.80;99.90
55436;DHT22;41307;53.142;6.430;2023-08-06T14:33:53;22.70;99.90
55436;DHT22;41307;53.142;6.430;2023-08-06T14:36:19;22.60;99.90
55436;DHT22;41307;53.142;6.430;2023-08-06T14:38:44;22.60;99.90
55436;DHT22;41307;53.142;6.430;2023-08-06T14:41:10;22.60;99.90
55436;DHT22;41307;53.142;6.430;2023-08-06T14:43:36;22.50;99.90
55436;DHT22;41307;53.142;6.430;2023-08-06T14:46:02;22.40;99.90
55436;DHT22;41307;53.142;6.430;2023-08-06T14:48:29;22.30;99.90
55436;DHT22;41307;53.142;6.430;2023-08-06T14:50:55;22.20;99.90
55436;DHT22;41307;53.142;6.430;2023-08-06T14:53:21;22.10;99.90
55436;DHT22;41307;53.142;6.430;2023-08-06T14:55:47;22.00;99.90
55436;DHT22;41307;53.142;6.430;2023-08-06T14:58:13;22.00;99.90
55436;DHT22;41307;53.142;6.430;2023-08-06T15:00:39;21.90;99.90
55436;DHT22;41307;53.142;6.430;2023-08-06T15:03:04;21.80;99.90
55436;DHT22;41307;53.142;6.430;2023-08-06T15:05:30;21.70;99.90
55436;DHT22;41307;53.142;6.430;2023-08-06T15:07:56;21.60;99.90
55436;DHT22;41307;53.142;6.430;2023-08-06T15:10:21;21.60;99.90
55436;DHT22;41307;53.142;6.430;2023-08-06T15:12:48;21.70;99.90
55436;DHT22;41307;53.142;6.430;2023-08-06T15:15:14;21.70;99.90
55436;DHT22;41307;53.142;6.430;2023-08-06T15:17:40;21.70;99.90
55436;DHT22;41307;53.142;6.430;2023-08-06T15:20:06;21.70;99.90
55436;DHT22;41307;53.142;6.430;2023-08-06T15:22:32;21.70;99.90
55436;DHT22;41307;53.142;6.430;2023-08-06T15:25:01;21.70;99.90
55436;DHT22;41307;53.142;6.430;2023-08-06T15:27:27;21.70;99.90
55436;DHT22;41307;53.142;6.430;2023-08-06T15:29:53;21.70;99.90
55436;DHT22;41307;53.142;6.430;2023-08-06T15:32:19;21.70;99.90
55436;DHT22;41307;53.142;6.430;2023-08-06T15:34:46;21.60;99.90
55436;DHT22;41307;53.142;6.430;2023-08-06T15:37:12;21.60;99.90
55436;DHT22;41307;53.142;6.430;2023-08-06T15:39:38;21.50;99.90